Cope, South Carolina
Current Conditions -  °F | °C
As of 3:53 PM on Thursday 27 Nov 2014 (Local Time) from KOGB Reporting Station
Clear Clear  
Wind Chill: 53°   Ceiling: Unl
Heat Index: 53°   Visibility: 10mi
Dew Point: 27°   Wind: 13mph
Humidity: 37%   Direction: 300°WNW
Pressure: 30.16"   Gusts: 21mph
Location:  33.38°N, 81.01°W
Report Text: KOGB 272053Z AUTO 30011G18KT 10SM CLR 12/M03 A3016 RMK AO2 SLP212 T01171028 53009
Loading
Personal Weather Stations






























Interactive Weather Map New forecast layout! Learn more

10-Day Weather Forecast

Advertisements
Track Severe Weather on mobile